Time;durP1;ratioP1;P1;durP2;ratioP2;P2;SDS_P1;SDS_P2;PMS_P1;PMS_P2;Temp;Humidity;BMP_temperature;BMP_pressure;BME280_temperature;BME280_humidity;BME280_pressure;Samples;Min_cycle;Max_cycle;Signal;HPM_P1;HPM_P2
2022/05/26 00:01:26;;;;;;;1.83;1.08;;;15.90;99.90;;;;;;5112196;28;20169;-49
2022/05/26 00:03:52;;;;;;;3.03;1.05;;;15.80;99.90;;;;;;5111806;28;20224;-49
2022/05/26 00:06:21;;;;;;;1.33;1.20;;;15.80;99.90;;;;;;5112028;28;20165;-49
2022/05/26 00:08:47;;;;;;;1.98;1.33;;;15.90;99.90;;;;;;5115525;28;20192;-49
2022/05/26 00:11:17;;;;;;;2.95;1.50;;;15.90;99.90;;;;;;5115531;28;20188;-49
2022/05/26 00:13:43;;;;;;;1.77;0.90;;;15.80;99.90;;;;;;5115470;28;20164;-48
2022/05/26 00:16:09;;;;;;;4.35;1.10;;;15.80;99.90;;;;;;5115729;28;20176;-48
2022/05/26 00:18:34;;;;;;;8.20;1.50;;;15.80;99.90;;;;;;5115437;28;20167;-49
2022/05/26 00:21:01;;;;;;;3.20;0.70;;;15.80;99.90;;;;;;5115339;28;20252;-48
2022/05/26 00:23:26;;;;;;;2.90;0.70;;;15.80;99.90;;;;;;5115620;28;20251;-49
2022/05/26 00:25:52;;;;;;;1.98;1.17;;;15.80;99.90;;;;;;5096992;28;20615;-48
2022/05/26 00:28:17;;;;;;;5.10;1.40;;;15.80;99.90;;;;;;5115139;28;20173;-48
2022/05/26 00:30:43;;;;;;;3.88;1.40;;;15.80;99.90;;;;;;5115267;28;20175;-48
2022/05/26 00:33:09;;;;;;;1.30;0.90;;;15.80;99.90;;;;;;5115091;28;20180;-49
2022/05/26 00:35:36;;;;;;;3.95;1.10;;;15.80;99.90;;;;;;5115045;28;20693;-49
2022/05/26 00:38:05;;;;;;;2.38;1.10;;;15.80;99.90;;;;;;5115253;28;20177;-49
2022/05/26 00:40:32;;;;;;;1.88;1.25;;;15.80;99.90;;;;;;5114893;28;20647;-47
2022/05/26 00:42:59;;;;;;;1.40;1.10;;;15.80;99.90;;;;;;5114988;28;20168;-47
2022/05/26 00:45:29;;;;;;;2.70;1.20;;;15.80;99.90;;;;;;5115175;28;20172;-48
2022/05/26 00:47:54;;;;;;;3.13;1.23;;;15.80;99.90;;;;;;5115180;28;20172;-48
2022/05/26 00:50:23;;;;;;;2.00;1.20;;;15.80;99.90;;;;;;5114677;28;20212;-47
2022/05/26 00:52:54;;;;;;;1.65;1.40;;;15.70;99.90;;;;;;5114685;28;20527;-48
2022/05/26 00:55:34;;;;;;;3.30;1.30;;;15.80;99.90;;;;;;5114639;28;20173;-49
2022/05/26 00:58:01;;;;;;;3.47;1.02;;;15.70;99.90;;;;;;5114866;28;20188;-47
2022/05/26 01:00:30;;;;;;;5.18;1.27;;;15.70;99.90;;;;;;5114580;28;20175;-47
2022/05/26 01:03:05;;;;;;;1.77;1.10;;;15.70;99.90;;;;;;5114919;28;20234;-48
2022/05/26 01:05:39;;;;;;;1.38;1.02;;;15.70;99.90;;;;;;5114356;28;20745;-49
2022/05/26 01:08:16;;;;;;;1.88;0.95;;;15.70;99.90;;;;;;5114428;28;20579;-49
2022/05/26 01:10:42;;;;;;;3.50;1.23;;;15.70;99.90;;;;;;5114505;28;20216;-48
2022/05/26 01:13:08;;;;;;;2.55;1.33;;;15.70;99.90;;;;;;5114339;28;20201;-48
2022/05/26 01:15:37;;;;;;;4.20;1.23;;;15.70;99.90;;;;;;5114312;28;20251;-48
2022/05/26 01:18:33;;;;;;;3.42;1.00;;;15.70;99.90;;;;;;5113174;28;20153;-48
2022/05/26 01:21:34;;;;;;;2.35;0.90;;;15.70;99.90;;;;;;5114188;28;20157;-48
2022/05/26 01:24:36;;;;;;;2.47;1.30;;;15.70;99.90;;;;;;5023940;28;20191;-49
2022/05/26 01:27:33;;;;;;;2.78;1.02;;;15.60;99.90;;;;;;5114063;28;20248;-48
2022/05/26 01:30:17;;;;;;;2.53;1.20;;;15.60;99.90;;;;;;5079098;28;20217;-48
2022/05/26 01:33:04;;;;;;;2.55;0.95;;;15.60;99.90;;;;;;5114003;28;20156;-48
2022/05/26 01:35:47;;;;;;;3.33;1.20;;;15.60;99.90;;;;;;5113891;28;20172;-48
2022/05/26 01:38:31;;;;;;;1.88;0.88;;;15.70;99.90;;;;;;5113976;28;20161;-49
2022/05/26 01:41:12;;;;;;;4.25;1.10;;;15.60;99.90;;;;;;5114215;28;20161;-48
2022/05/26 01:43:55;;;;;;;1.20;0.80;;;15.60;99.90;;;;;;5113848;28;20168;-47
2022/05/26 01:46:28;;;;;;;4.15;1.40;;;15.60;99.90;;;;;;5113846;28;20595;-47
2022/05/26 01:49:06;;;;;;;3.22;1.02;;;15.60;99.90;;;;;;5095637;28;20743;-47
2022/05/26 01:51:38;;;;;;;2.45;1.17;;;15.70;99.90;;;;;;5095357;28;20168;-46
2022/05/26 01:54:20;;;;;;;1.50;1.15;;;15.60;99.90;;;;;;5113558;28;20281;-48
2022/05/26 01:56:53;;;;;;;1.08;0.98;;;15.60;99.90;;;;;;5113553;28;20624;-47
2022/05/26 01:59:22;;;;;;;4.05;1.38;;;15.70;99.90;;;;;;5113493;28;20168;-47
2022/05/26 02:02:03;;;;;;;1.15;0.90;;;15.60;99.90;;;;;;5113448;28;20157;-47
2022/05/26 02:04:51;;;;;;;1.77;1.10;;;15.60;99.90;;;;;;5113215;28;20248;-47
2022/05/26 02:07:32;;;;;;;3.65;1.33;;;15.70;99.90;;;;;;5113278;28;20194;-47
2022/05/26 02:10:02;;;;;;;2.25;1.20;;;15.60;99.90;;;;;;5113125;28;20667;-47
2022/05/26 02:12:44;;;;;;;2.88;1.30;;;15.60;99.90;;;;;;5113464;28;20177;-47
2022/05/26 02:15:46;;;;;;;3.20;1.55;;;15.50;99.90;;;;;;5113178;28;20176;-47
2022/05/26 02:18:32;;;;;;;3.65;1.30;;;15.50;99.90;;;;;;5081707;28;20530;-48
2022/05/26 02:21:12;;;;;;;2.33;1.30;;;15.50;99.90;;;;;;5113256;28;20167;-48
2022/05/26 02:23:50;;;;;;;1.67;1.10;;;15.40;99.90;;;;;;5113047;28;20176;-48
2022/05/26 02:26:15;;;;;;;1.55;1.27;;;15.40;99.90;;;;;;5112958;28;20206;-47
2022/05/26 02:31:28;;;;;;;2.33;1.27;;;15.40;99.90;;;;;;5113286;28;20237;-50
2022/05/26 02:33:58;;;;;;;1.83;1.30;;;14.80;99.90;;;;;;5113150;28;20517;-49
2022/05/26 02:36:26;;;;;;;3.60;1.27;;;15.40;99.90;;;;;;5113250;28;20165;-50
2022/05/26 02:38:52;;;;;;;2.50;1.60;;;15.40;99.90;;;;;;5112568;28;20260;-50
2022/05/26 02:41:18;;;;;;;1.50;1.40;;;15.40;99.90;;;;;;5112703;28;20247;-49
2022/05/26 02:43:43;;;;;;;1.33;1.23;;;15.40;99.90;;;;;;5112699;28;20252;-48
2022/05/26 02:46:35;;;;;;;1.20;1.10;;;15.40;99.90;;;;;;5112669;28;20169;-48
2022/05/26 02:49:32;;;;;;;1.60;1.27;;;15.40;99.90;;;;;;5112444;28;20196;-47
2022/05/26 02:52:27;;;;;;;3.33;1.35;;;15.40;99.90;;;;;;5112856;28;20248;-47
2022/05/26 02:55:17;;;;;;;4.35;1.60;;;15.40;99.90;;;;;;5112970;28;20172;-49
2022/05/26 02:57:58;;;;;;;4.30;1.80;;;15.40;99.90;;;;;;5112819;28;20304;-48
2022/05/26 03:00:30;;;;;;;3.75;2.38;;;15.40;99.90;;;;;;5112790;28;20624;-48
2022/05/26 03:03:10;;;;;;;4.13;1.75;;;15.40;99.90;;;;;;5112799;28;20165;-47
2022/05/26 03:05:48;;;;;;;3.17;1.70;;;15.40;99.90;;;;;;5112324;28;20273;-47
2022/05/26 03:08:16;;;;;;;4.70;1.83;;;15.40;99.90;;;;;;5095070;28;20246;-48
2022/05/26 03:10:48;;;;;;;3.63;1.63;;;15.40;99.90;;;;;;5112379;28;20169;-47
2022/05/26 03:13:14;;;;;;;2.75;1.70;;;15.30;99.90;;;;;;5112689;28;20172;-47
2022/05/26 03:15:40;;;;;;;2.63;1.88;;;15.30;99.90;;;;;;5094115;28;20172;-47
2022/05/26 03:18:06;;;;;;;3.63;2.15;;;15.30;99.90;;;;;;5112628;28;20183;-48
2022/05/26 03:20:32;;;;;;;4.20;2.20;;;15.30;99.90;;;;;;5094045;28;20203;-47
2022/05/26 03:22:58;;;;;;;2.63;2.08;;;15.30;99.90;;;;;;5112363;28;20624;-47
2022/05/26 03:25:24;;;;;;;3.22;1.77;;;15.30;99.90;;;;;;5112589;28;20168;-47
2022/05/26 03:27:50;;;;;;;6.22;2.15;;;15.30;99.90;;;;;;5112250;28;20531;-48
2022/05/26 03:30:16;;;;;;;5.93;2.33;;;15.30;99.90;;;;;;5112126;28;20257;-47
2022/05/26 03:32:41;;;;;;;4.28;2.15;;;15.30;99.90;;;;;;5112309;28;20161;-48
2022/05/26 03:40:58;;;;;;;5.75;2.70;;;15.20;99.90;;;;;;5112199;28;20592;-47
2022/05/26 03:43:29;;;;;;;5.38;2.20;;;15.20;99.90;;;;;;5116297;28;20200;-48
2022/05/26 03:45:57;;;;;;;6.55;2.88;;;15.20;99.90;;;;;;5098090;28;20168;-47
2022/05/26 03:48:22;;;;;;;7.63;2.28;;;15.20;99.90;;;;;;5116119;28;20160;-48
2022/05/26 03:50:48;;;;;;;5.90;2.40;;;15.20;99.90;;;;;;5115966;28;20169;-47
2022/05/26 03:53:14;;;;;;;5.18;2.50;;;15.20;99.90;;;;;;5115872;28;20168;-47
2022/05/26 03:55:40;;;;;;;6.13;2.83;;;15.20;99.90;;;;;;5115836;28;20177;-47
2022/05/26 03:58:05;;;;;;;5.57;2.38;;;15.20;99.90;;;;;;5116141;28;20173;-47
2022/05/26 04:00:32;;;;;;;8.18;2.50;;;15.20;99.90;;;;;;5115985;28;20247;-48
2022/05/26 04:02:57;;;;;;;4.57;2.55;;;15.30;99.90;;;;;;5115893;28;20172;-47
2022/05/26 04:05:23;;;;;;;7.05;2.60;;;15.30;99.90;;;;;;5115962;28;20208;-47
2022/05/26 04:07:49;;;;;;;6.68;2.78;;;15.30;99.90;;;;;;5115638;28;20169;-48
2022/05/26 04:10:15;;;;;;;5.40;2.53;;;15.20;99.90;;;;;;5115500;28;20570;-48
2022/05/26 04:12:42;;;;;;;4.90;2.72;;;15.20;99.90;;;;;;5115501;28;20168;-48
2022/05/26 04:15:09;;;;;;;6.00;3.20;;;15.30;99.90;;;;;;5115810;28;20251;-48
2022/05/26 04:17:36;;;;;;;4.07;2.55;;;15.20;99.90;;;;;;5115336;28;20172;-48
2022/05/26 04:20:01;;;;;;;6.97;2.67;;;15.20;99.90;;;;;;5115426;28;20173;-48
2022/05/26 04:22:27;;;;;;;11.73;3.28;;;15.30;99.90;;;;;;5115697;28;20164;-48
2022/05/26 04:24:57;;;;;;;5.78;2.88;;;15.20;99.90;;;;;;5115661;28;20179;-48
2022/05/26 04:27:26;;;;;;;6.95;3.20;;;15.20;99.90;;;;;;5115466;28;20172;-48
2022/05/26 04:29:52;;;;;;;8.18;2.42;;;15.10;99.90;;;;;;5114995;28;20207;-48
2022/05/26 04:32:19;;;;;;;6.53;3.22;;;15.20;99.90;;;;;;5115406;28;20217;-48
2022/05/26 04:34:48;;;;;;;11.75;2.70;;;15.20;99.90;;;;;;5115161;28;20161;-48
2022/05/26 04:37:14;;;;;;;9.98;3.53;;;15.20;99.90;;;;;;5115269;28;20171;-47
2022/05/26 04:39:40;;;;;;;8.70;3.10;;;15.20;99.90;;;;;;5115317;28;20177;-48
2022/05/26 04:42:06;;;;;;;6.88;2.97;;;15.20;99.90;;;;;;5115044;28;20658;-48
2022/05/26 04:44:34;;;;;;;6.07;3.08;;;15.20;99.90;;;;;;5114885;28;20647;-47
2022/05/26 04:47:01;;;;;;;5.90;3.17;;;15.20;99.90;;;;;;5115042;28;20171;-48
2022/05/26 04:49:27;;;;;;;7.05;3.13;;;15.20;99.90;;;;;;5115354;28;20196;-47
2022/05/26 04:51:53;;;;;;;9.73;3.42;;;15.30;99.90;;;;;;5115339;28;20179;-49
2022/05/26 04:54:19;;;;;;;9.70;3.38;;;15.30;99.90;;;;;;5114615;28;20165;-48
2022/05/26 04:56:44;;;;;;;9.40;3.60;;;15.30;99.90;;;;;;5114619;28;20173;-47
2022/05/26 04:59:10;;;;;;;7.20;3.40;;;15.40;99.90;;;;;;5114670;28;20165;-48
2022/05/26 05:01:36;;;;;;;8.05;3.50;;;15.40;99.90;;;;;;5114563;28;20525;-47
2022/05/26 05:04:02;;;;;;;8.68;3.30;;;15.40;99.90;;;;;;5114399;28;20570;-48
2022/05/26 05:06:27;;;;;;;7.07;3.30;;;15.40;99.90;;;;;;5114729;28;20578;-47
2022/05/26 05:08:53;;;;;;;8.70;3.55;;;15.40;99.90;;;;;;5114986;28;20666;-48
2022/05/26 05:11:19;;;;;;;7.97;3.70;;;15.50;99.90;;;;;;5096185;28;20173;-48
2022/05/26 05:13:45;;;;;;;7.75;3.72;;;15.50;99.90;;;;;;5114304;28;20161;-49
2022/05/26 05:16:24;;;;;;;8.57;3.55;;;15.50;99.90;;;;;;5114339;28;20177;-49
2022/05/26 05:18:50;;;;;;;8.55;3.50;;;15.50;99.90;;;;;;5114280;28;20269;-49
2022/05/26 05:21:22;;;;;;;8.25;3.20;;;15.50;99.90;;;;;;5114184;28;20164;-49
2022/05/26 05:23:53;;;;;;;6.85;3.35;;;15.50;99.90;;;;;;5114196;28;20217;-49
2022/05/26 05:26:20;;;;;;;9.20;3.88;;;15.60;99.90;;;;;;5114137;28;20176;-49
2022/05/26 05:28:52;;;;;;;9.38;3.97;;;15.50;99.90;;;;;;5113984;28;20246;-47
2022/05/26 05:31:25;;;;;;;7.05;3.45;;;15.50;99.90;;;;;;5114016;28;20165;-49
2022/05/26 05:33:59;;;;;;;7.35;3.03;;;15.60;99.90;;;;;;5114212;28;20567;-48
2022/05/26 05:36:31;;;;;;;7.10;3.25;;;15.60;99.90;;;;;;5114322;28;20171;-49
2022/05/26 05:38:58;;;;;;;10.50;3.58;;;15.60;99.90;;;;;;5114190;28;20157;-48
2022/05/26 05:41:25;;;;;;;7.10;3.78;;;15.70;99.90;;;;;;5114147;28;20157;-47
2022/05/26 05:43:50;;;;;;;9.75;4.30;;;15.70;99.90;;;;;;5113789;28;20196;-47
2022/05/26 05:46:19;;;;;;;10.77;4.05;;;15.70;99.90;;;;;;5113737;28;20666;-47
2022/05/26 05:48:46;;;;;;;7.93;4.70;;;15.70;99.90;;;;;;5095299;28;20200;-47
2022/05/26 05:51:12;;;;;;;9.43;3.65;;;15.80;99.90;;;;;;5113640;28;20203;-47
2022/05/26 05:53:38;;;;;;;11.40;4.22;;;15.80;99.90;;;;;;5113538;28;20185;-47
2022/05/26 05:56:04;;;;;;;10.18;4.05;;;15.90;99.90;;;;;;5113570;28;20161;-48
2022/05/26 05:58:30;;;;;;;9.70;4.40;;;16.10;99.90;;;;;;5113473;28;20169;-50
2022/05/26 06:00:55;;;;;;;11.00;4.13;;;16.30;99.90;;;;;;5113810;28;20624;-49
2022/05/26 06:03:21;;;;;;;8.95;3.65;;;16.40;99.90;;;;;;5113429;28;20172;-48
2022/05/26 06:05:47;;;;;;;5.70;3.55;;;16.60;99.90;;;;;;5112791;28;20867;-48
2022/05/26 06:08:13;;;;;;;9.50;3.85;;;16.50;99.90;;;;;;5113233;28;20550;-48
2022/05/26 06:10:38;;;;;;;10.30;4.10;;;16.60;99.90;;;;;;5113254;28;20211;-48
2022/05/26 06:13:04;;;;;;;9.50;4.20;;;16.80;99.90;;;;;;5113150;28;20179;-49
2022/05/26 06:15:30;;;;;;;10.30;4.13;;;16.80;99.90;;;;;;5113088;28;20200;-48
2022/05/26 06:17:57;;;;;;;12.20;4.68;;;16.90;99.90;;;;;;5113616;28;20235;-47
2022/05/26 06:20:23;;;;;;;6.90;4.00;;;16.90;99.90;;;;;;5113603;28;20169;-49
2022/05/26 06:22:49;;;;;;;7.30;3.97;;;17.00;99.90;;;;;;5113289;28;20165;-49
2022/05/26 06:25:18;;;;;;;10.23;4.15;;;17.30;99.90;;;;;;5113006;28;20628;-48
2022/05/26 06:30:30;;;;;;;13.52;5.22;;;17.40;99.90;;;;;;5112952;28;20207;-47
2022/05/26 06:38:39;;;;;;;11.35;4.25;;;17.30;99.90;;;;;;5113073;28;20172;-48
2022/05/26 06:43:52;;;;;;;12.10;4.55;;;17.50;99.90;;;;;;5112968;28;20167;-48
2022/05/26 06:46:19;;;;;;;9.93;4.28;;;17.70;99.90;;;;;;5112687;28;20176;-47
2022/05/26 06:48:45;;;;;;;9.68;4.18;;;17.70;99.90;;;;;;5112800;28;20195;-49
2022/05/26 06:51:10;;;;;;;10.13;4.30;;;17.80;99.90;;;;;;5112543;28;20251;-51
2022/05/26 06:53:38;;;;;;;7.63;4.22;;;17.90;99.90;;;;;;5112714;28;20188;-48
2022/05/26 06:56:04;;;;;;;6.78;3.35;;;17.80;99.90;;;;;;5112438;28;20187;-48
2022/05/26 06:58:30;;;;;;;7.50;4.25;;;17.70;99.90;;;;;;5112634;28;20188;-48
2022/05/26 07:00:56;;;;;;;9.00;4.28;;;17.80;99.90;;;;;;5113019;28;20525;-48
2022/05/26 07:03:22;;;;;;;10.15;4.60;;;18.10;99.90;;;;;;5112083;28;20662;-50
2022/05/26 07:05:48;;;;;;;8.75;3.95;;;18.10;99.90;;;;;;5112308;28;20220;-49
2022/05/26 07:08:13;;;;;;;6.50;4.13;;;18.10;99.90;;;;;;5112690;28;20688;-49
2022/05/26 07:10:39;;;;;;;10.52;3.85;;;18.00;99.90;;;;;;5112626;28;20735;-46
2022/05/26 07:13:05;;;;;;;9.57;4.20;;;18.00;99.90;;;;;;5112687;28;20619;-49
2022/05/26 07:15:33;;;;;;;8.07;3.40;;;18.10;99.90;;;;;;5094051;28;20171;-48
2022/05/26 07:17:58;;;;;;;8.18;4.28;;;18.20;99.90;;;;;;5116063;28;20171;-50
2022/05/26 07:20:24;;;;;;;11.93;5.22;;;18.10;99.90;;;;;;5098758;28;20169;-51
2022/05/26 07:22:49;;;;;;;9.57;3.85;;;17.90;99.90;;;;;;5116732;28;20180;-50
2022/05/26 07:25:15;;;;;;;10.00;4.38;;;17.80;99.90;;;;;;5116517;28;20191;-50
2022/05/26 07:27:42;;;;;;;10.80;4.28;;;17.90;99.90;;;;;;5116375;28;20218;-50
2022/05/26 07:30:10;;;;;;;7.57;4.57;;;18.00;99.90;;;;;;5115958;28;20546;-51
2022/05/26 07:32:35;;;;;;;10.45;3.70;;;18.20;99.90;;;;;;5116169;28;20657;-50
2022/05/26 07:35:01;;;;;;;10.38;4.00;;;18.00;99.90;;;;;;5116251;28;20173;-49
2022/05/26 07:42:55;;;;;;;12.82;4.28;;;18.30;99.90;;;;;;5116473;28;20171;-48
2022/05/26 07:45:21;;;;;;;8.80;3.67;;;18.20;99.90;;;;;;5116022;28;20177;-49
2022/05/26 07:47:47;;;;;;;8.30;3.75;;;18.30;99.90;;;;;;5115742;28;20160;-50
2022/05/26 07:50:20;;;;;;;9.98;4.28;;;18.20;99.90;;;;;;5115920;28;20249;-50
2022/05/26 07:52:48;;;;;;;9.18;3.75;;;18.00;99.90;;;;;;5115691;28;20620;-48
2022/05/26 07:55:14;;;;;;;10.13;3.78;;;18.00;99.90;;;;;;5115815;28;20580;-50
2022/05/26 07:57:40;;;;;;;11.75;4.07;;;18.00;99.90;;;;;;5115858;28;20251;-50
2022/05/26 08:00:06;;;;;;;9.93;3.58;;;18.40;99.90;;;;;;5116032;28;20219;-50
2022/05/26 08:02:32;;;;;;;11.77;4.10;;;18.40;99.90;;;;;;5115838;28;20156;-50
2022/05/26 08:04:57;;;;;;;8.70;3.92;;;18.70;99.90;;;;;;5115853;28;20702;-50
2022/05/26 08:07:23;;;;;;;9.15;3.80;;;19.00;99.90;;;;;;5115956;28;20177;-48
2022/05/26 08:09:49;;;;;;;8.15;4.15;;;19.20;99.90;;;;;;5115517;28;20283;-49
2022/05/26 08:12:15;;;;;;;9.00;3.85;;;18.60;99.90;;;;;;5115585;28;20164;-48
2022/05/26 08:14:42;;;;;;;10.48;3.72;;;18.50;99.90;;;;;;5115479;28;20171;-48
2022/05/26 08:17:10;;;;;;;9.30;3.65;;;18.90;99.90;;;;;;5115506;28;20165;-48
2022/05/26 08:19:37;;;;;;;12.77;4.38;;;19.20;99.90;;;;;;5115347;28;20647;-48
2022/05/26 08:22:02;;;;;;;8.63;3.65;;;19.10;99.90;;;;;;5115386;28;20165;-49
2022/05/26 08:24:28;;;;;;;7.85;3.28;;;19.10;99.90;;;;;;5115160;28;20169;-47
2022/05/26 08:26:56;;;;;;;6.72;3.08;;;19.10;99.90;;;;;;5115453;28;20256;-49
2022/05/26 08:29:22;;;;;;;10.82;3.17;;;19.10;99.90;;;;;;5114361;28;20671;-48
2022/05/26 08:31:47;;;;;;;5.40;3.13;;;19.40;99.90;;;;;;5116048;28;20634;-50
2022/05/26 08:34:13;;;;;;;6.65;3.28;;;19.60;99.90;;;;;;5115448;28;20244;-50
2022/05/26 08:36:39;;;;;;;6.85;3.58;;;19.40;99.90;;;;;;5115446;28;20173;-48
2022/05/26 08:39:05;;;;;;;7.57;3.40;;;19.70;99.90;;;;;;5097213;28;20196;-49
2022/05/26 08:41:42;;;;;;;7.25;3.17;;;19.50;99.90;;;;;;5114849;28;20169;-49
2022/05/26 08:44:31;;;;;;;6.45;2.85;;;19.90;99.90;;;;;;5097295;28;20255;-49
2022/05/26 08:47:12;;;;;;;3.15;2.20;;;20.00;99.90;;;;;;5115329;28;20199;-49
2022/05/26 08:49:44;;;;;;;9.20;3.70;;;19.80;99.90;;;;;;5115327;28;20220;-50
2022/05/26 08:52:13;;;;;;;9.73;3.83;;;19.80;99.90;;;;;;5096561;28;20541;-51
2022/05/26 08:54:53;;;;;;;7.55;3.13;;;19.60;99.90;;;;;;5115760;28;20191;-51
2022/05/26 08:57:43;;;;;;;11.02;3.35;;;19.50;99.90;;;;;;5115559;28;20840;-51
2022/05/26 09:00:13;;;;;;;10.75;3.40;;;19.20;99.90;;;;;;5114649;28;20268;-50
2022/05/26 09:02:40;;;;;;;9.85;3.22;;;19.30;99.90;;;;;;5115135;28;20226;-49
2022/05/26 09:05:18;;;;;;;7.78;3.88;;;19.40;99.90;;;;;;5115237;28;20212;-51
2022/05/26 09:13:43;;;;;;;10.98;3.22;;;19.40;99.90;;;;;;5115208;28;20199;-50
2022/05/26 09:16:10;;;;;;;8.43;3.13;;;19.20;99.90;;;;;;5114660;28;20531;-49
2022/05/26 09:18:40;;;;;;;9.68;3.20;;;19.20;99.90;;;;;;5114182;28;20178;-50
2022/05/26 09:21:22;;;;;;;5.68;2.65;;;19.40;99.90;;;;;;5095616;28;20252;-50
2022/05/26 09:23:48;;;;;;;5.82;2.47;;;19.70;99.90;;;;;;5112934;28;20160;-50
2022/05/26 09:26:19;;;;;;;5.60;2.75;;;19.80;99.90;;;;;;5110510;28;20182;-49
2022/05/26 09:28:52;;;;;;;6.25;3.15;;;19.90;99.90;;;;;;5113117;28;20161;-50
2022/05/26 09:31:35;;;;;;;8.10;2.67;;;19.80;99.90;;;;;;5113302;28;20202;-49
2022/05/26 09:34:04;;;;;;;6.03;3.00;;;19.90;99.90;;;;;;5113260;28;20157;-50
2022/05/26 09:36:36;;;;;;;8.50;3.20;;;20.10;99.90;;;;;;5113467;28;20253;-49
2022/05/26 09:39:03;;;;;;;6.38;3.20;;;20.30;99.90;;;;;;5112887;28;20189;-50
2022/05/26 09:41:35;;;;;;;6.18;3.03;;;20.60;99.90;;;;;;5114075;28;20175;-49
2022/05/26 09:44:01;;;;;;;8.88;4.28;;;20.80;99.90;;;;;;5113805;28;20259;-50
2022/05/26 09:46:27;;;;;;;4.55;2.47;;;20.60;99.90;;;;;;5114274;28;20188;-50
2022/05/26 09:49:08;;;;;;;5.28;2.83;;;20.50;99.90;;;;;;5113849;28;20279;-50
2022/05/26 09:51:45;;;;;;;6.10;2.90;;;20.50;99.90;;;;;;5113541;28;20635;-50
2022/05/26 09:54:26;;;;;;;10.23;3.13;;;20.40;99.90;;;;;;5113519;28;20222;-50
2022/05/26 09:56:52;;;;;;;9.52;2.90;;;20.40;99.90;;;;;;5113709;28;20176;-50
2022/05/26 09:59:34;;;;;;;9.18;2.95;;;20.10;99.90;;;;;;5110865;28;20771;-50
2022/05/26 10:02:09;;;;;;;8.95;2.15;;;20.70;99.90;;;;;;5111392;28;20688;-50
2022/05/26 10:05:12;;;;;;;7.07;2.50;;;20.80;99.90;;;;;;5113219;28;20216;-50
2022/05/26 10:08:18;;;;;;;8.27;2.60;;;20.90;99.90;;;;;;5110384;28;20203;-50
2022/05/26 10:11:02;;;;;;;6.13;2.42;;;21.10;99.90;;;;;;5112468;28;20215;-50
2022/05/26 10:13:51;;;;;;;6.43;2.97;;;20.90;99.90;;;;;;5096101;28;20180;-49
2022/05/26 10:16:50;;;;;;;9.23;2.63;;;21.10;99.90;;;;;;5105096;28;20563;-50
2022/05/26 10:19:41;;;;;;;9.85;2.60;;;20.70;99.90;;;;;;5092517;28;20172;-50
2022/05/26 10:22:44;;;;;;;5.20;2.13;;;20.70;99.90;;;;;;5102747;28;20225;-50
2022/05/26 10:25:23;;;;;;;6.15;2.33;;;20.70;99.90;;;;;;5109174;28;20261;-50
2022/05/26 10:27:59;;;;;;;4.38;2.15;;;20.60;99.90;;;;;;5113114;28;20164;-50
2022/05/26 10:30:28;;;;;;;5.20;1.90;;;20.50;99.90;;;;;;5112962;28;20240;-50
2022/05/26 10:33:14;;;;;;;6.25;2.28;;;21.10;99.90;;;;;;5095068;28;20160;-50
2022/05/26 10:36:02;;;;;;;5.88;2.42;;;21.50;99.90;;;;;;5094465;28;20221;-50
2022/05/26 10:39:07;;;;;;;4.68;2.10;;;21.10;99.90;;;;;;5113303;28;20165;-50
2022/05/26 10:41:34;;;;;;;5.60;2.30;;;21.40;99.90;;;;;;5112878;28;20171;-50
2022/05/26 10:44:11;;;;;;;5.20;2.53;;;21.80;99.90;;;;;;5112580;28;20633;-50
2022/05/26 10:46:40;;;;;;;5.25;2.38;;;21.80;99.90;;;;;;5112843;28;20177;-50
2022/05/26 10:49:18;;;;;;;6.43;2.30;;;21.40;99.90;;;;;;5112537;28;20542;-49
2022/05/26 10:51:47;;;;;;;6.60;2.58;;;20.90;99.90;;;;;;5105792;28;20177;-49
2022/05/26 10:54:19;;;;;;;3.47;2.10;;;21.10;99.90;;;;;;5112330;28;20196;-50
2022/05/26 10:57:25;;;;;;;4.30;1.90;;;21.30;99.90;;;;;;5111380;28;20180;-51
2022/05/26 11:00:08;;;;;;;3.90;2.00;;;21.20;99.90;;;;;;5053684;28;20176;-50
2022/05/26 11:02:59;;;;;;;3.90;1.85;;;21.60;99.90;;;;;;5095187;28;20176;-51
2022/05/26 11:05:33;;;;;;;7.85;2.60;;;21.60;99.90;;;;;;5107272;28;20213;-51
2022/05/26 11:08:26;;;;;;;7.78;2.55;;;21.50;99.90;;;;;;5110807;28;20180;-51
2022/05/26 11:11:02;;;;;;;9.07;2.55;;;21.40;99.90;;;;;;5095173;28;20208;-48
2022/05/26 11:13:52;;;;;;;5.00;2.10;;;21.50;99.90;;;;;;5110209;28;20523;-51
2022/05/26 11:19:39;;;;;;;8.65;2.42;;;21.70;99.90;;;;;;5092320;28;20528;-50
2022/05/26 11:22:05;;;;;;;5.95;2.03;;;21.70;99.90;;;;;;5092787;28;20169;-51
2022/05/26 11:24:32;;;;;;;3.83;1.90;;;21.80;99.90;;;;;;5091859;28;20173;-51
2022/05/26 11:27:13;;;;;;;5.15;2.22;;;21.60;99.90;;;;;;5099022;28;20215;-49
2022/05/26 11:29:46;;;;;;;5.32;2.13;;;21.40;99.90;;;;;;5091573;28;20205;-51
2022/05/26 11:38:20;;;;;;;5.93;2.00;;;21.20;99.90;;;;;;5099708;28;20180;-50
2022/05/26 11:41:06;;;;;;;4.40;2.20;;;21.10;99.90;;;;;;5107036;28;20640;-53
2022/05/26 11:43:45;;;;;;;4.07;1.73;;;20.80;99.90;;;;;;5091484;28;20189;-51
2022/05/26 11:46:32;;;;;;;9.57;1.85;;;20.70;99.90;;;;;;5111212;28;20172;-51
2022/05/26 11:48:57;;;;;;;4.95;2.13;;;20.60;99.90;;;;;;5095171;28;20238;-51
2022/05/26 11:51:38;;;;;;;9.02;1.92;;;20.80;99.90;;;;;;5097245;28;20774;-51
2022/05/26 11:54:05;;;;;;;3.95;1.80;;;21.10;99.90;;;;;;5091211;28;20259;-50
2022/05/26 11:56:39;;;;;;;3.95;1.80;;;21.30;99.90;;;;;;5074116;28;20178;-50
2022/05/26 11:59:26;;;;;;;5.18;1.92;;;21.40;99.90;;;;;;5067547;28;20662;-49
2022/05/26 12:38:51;;;;;;;4.97;1.70;;;21.50;99.90;;;;;;5111284;27;20595;-50
2022/05/26 12:41:51;;;;;;;4.38;1.85;;;22.30;99.90;;;;;;5089321;28;20176;-51
2022/05/26 12:44:45;;;;;;;6.78;2.28;;;22.10;99.90;;;;;;5088025;28;20230;-51
2022/05/26 12:47:16;;;;;;;2.67;1.75;;;22.20;99.90;;;;;;5098189;28;20265;-50
2022/05/26 12:49:56;;;;;;;4.00;2.05;;;22.20;99.90;;;;;;5101439;28;20578;-51
2022/05/26 12:52:29;;;;;;;4.07;2.17;;;22.00;99.90;;;;;;5091778;28;20318;-51
2022/05/26 12:55:24;;;;;;;4.40;2.10;;;22.20;99.90;;;;;;5090435;28;20226;-51
2022/05/26 12:58:10;;;;;;;7.78;2.50;;;22.60;99.90;;;;;;5097506;28;20181;-51
2022/05/26 13:00:43;;;;;;;4.45;2.00;;;22.80;99.90;;;;;;5064131;28;20230;-51
2022/05/26 13:03:29;;;;;;;5.30;2.40;;;22.50;99.90;;;;;;5098937;28;20273;-51
2022/05/26 13:06:03;;;;;;;4.78;2.30;;;22.00;99.90;;;;;;5049699;28;20220;-51
2022/05/26 13:08:34;;;;;;;6.65;2.67;;;21.90;99.90;;;;;;5081839;28;20176;-51
2022/05/26 13:11:00;;;;;;;6.55;3.40;;;22.10;99.90;;;;;;5101665;28;20205;-51
2022/05/26 13:13:38;;;;;;;4.80;3.30;;;22.60;99.90;;;;;;5102255;28;20196;-51
2022/05/26 13:16:22;;;;;;;6.43;3.00;;;22.30;99.90;;;;;;5098827;28;20199;-51
2022/05/26 13:18:48;;;;;;;5.38;3.20;;;22.20;99.90;;;;;;5084508;28;20174;-51
2022/05/26 13:21:19;;;;;;;7.18;3.10;;;22.50;99.90;;;;;;5095038;28;20519;-51
2022/05/26 13:23:44;;;;;;;5.53;3.22;;;22.70;99.90;;;;;;5079777;28;20173;-51
2022/05/26 13:26:12;;;;;;;9.88;3.70;;;22.80;99.90;;;;;;5095253;28;20207;-51
2022/05/26 13:28:40;;;;;;;7.65;3.28;;;22.80;99.90;;;;;;5094368;28;20288;-50
2022/05/26 13:33:55;;;;;;;7.63;2.80;;;22.60;99.90;;;;;;5094030;28;20608;-51
2022/05/26 13:36:36;;;;;;;4.40;2.47;;;23.00;99.90;;;;;;5095937;28;20249;-51
2022/05/26 13:39:11;;;;;;;3.80;2.38;;;22.80;99.90;;;;;;5082483;28;20180;-51
2022/05/26 13:41:40;;;;;;;5.38;2.47;;;22.80;99.90;;;;;;5072699;28;20192;-51
2022/05/26 13:44:09;;;;;;;6.22;2.50;;;22.60;99.90;;;;;;5086746;28;20267;-51
2022/05/26 13:46:39;;;;;;;5.35;2.65;;;22.80;99.90;;;;;;5080760;28;20197;-51
2022/05/26 13:49:16;;;;;;;6.97;2.28;;;22.80;99.90;;;;;;5088272;28;20177;-51
2022/05/26 13:51:44;;;;;;;14.63;2.55;;;22.80;99.90;;;;;;5080597;28;20257;-51
2022/05/26 13:54:48;;;;;;;4.68;2.33;;;22.70;99.90;;;;;;5080674;28;20182;-51
2022/05/26 13:57:22;;;;;;;4.47;2.22;;;22.60;99.90;;;;;;5088885;28;20633;-51
2022/05/26 13:59:52;;;;;;;6.50;2.58;;;22.80;99.90;;;;;;5076868;28;20185;-51
2022/05/26 14:02:28;;;;;;;3.72;2.30;;;22.80;99.90;;;;;;5076387;28;20243;-51
2022/05/26 14:05:12;;;;;;;5.10;2.38;;;22.90;99.90;;;;;;5090668;28;20184;-51
2022/05/26 14:07:43;;;;;;;7.55;2.67;;;22.90;99.90;;;;;;5082611;28;20220;-51
2022/05/26 14:10:20;;;;;;;5.03;2.45;;;22.90;99.90;;;;;;5072722;28;20274;-51
2022/05/26 14:13:00;;;;;;;6.88;2.22;;;22.90;99.90;;;;;;5089287;28;20181;-51
2022/05/26 14:15:40;;;;;;;7.00;2.40;;;22.80;99.90;;;;;;5065653;28;20226;-50
2022/05/26 14:18:19;;;;;;;6.60;2.10;;;22.80;99.90;;;;;;5069825;28;20177;-51
2022/05/26 14:20:56;;;;;;;5.78;2.13;;;22.60;99.90;;;;;;5081466;28;20173;-51
2022/05/26 14:23:22;;;;;;;7.28;2.60;;;22.40;99.90;;;;;;5072559;28;20180;-51
2022/05/26 14:26:27;;;;;;;6.47;2.42;;;22.60;99.90;;;;;;5075849;28;20177;-51
2022/05/26 14:28:52;;;;;;;5.43;3.15;;;22.90;99.90;;;;;;5073947;28;20185;-51
2022/05/26 14:31:20;;;;;;;6.32;2.45;;;23.10;99.90;;;;;;5073737;28;20234;-51
2022/05/26 14:34:02;;;;;;;6.38;2.50;;;23.00;99.90;;;;;;5072278;28;20541;-51